DHK524 EGNX-LIMC
Flight info
| Callsign | DHK524 |
|---|---|
| Flight time | N/A |
| Altitude | 35000 |
| Route | SAPCO UY53 DTY DCT SILVA UM605 BENSU Q70 BIG UL9 KONAN DCT KOK DCT CIV DCT SUTAL DCT GTQ DCT OBORN DCT DEVDI DCT BASGO/N0470F290 Z424 AKASU/N0402F190 Z424 RIXUV |
| Aircraft | B77L/H-SDE1E2E3FGHIJ2J3J4J5M1RWXY/LB1D1 |
Departure
| Time | 2026-05-07 10:26 |
|---|---|
| Airport | East Midlands Airport (EGNX) |
Arrival
| Time | N/A |
|---|---|
| Airport | Milan Malpensa International Airport (LIMC) |
| Time | Latitude | Longitude | Altitude | Speed | Heading |
|---|---|---|---|---|---|
| 2026-05-07 09:58 | 52.82738 | -1.35216 | 305 ft | 0 kts | 178° |
| 2026-05-07 10:17 | 52.82755 | -1.35217 | 305 ft | 4 kts | 178° |
| 2026-05-07 10:17 | 52.82778 | -1.35218 | 305 ft | 2 kts | 178° |
| 2026-05-07 10:18 | 52.82803 | -1.35215 | 305 ft | 4 kts | 205° |
| 2026-05-07 10:18 | 52.82819 | -1.35189 | 305 ft | 4 kts | 259° |
| 2026-05-07 10:18 | 52.82821 | -1.35147 | 304 ft | 4 kts | 268° |
| 2026-05-07 10:18 | 52.82821 | -1.35133 | 304 ft | 1 kts | 268° |
| 2026-05-07 10:22 | 52.82821 | -1.35140 | 305 ft | 2 kts | 268° |
| 2026-05-07 10:22 | 52.82821 | -1.35180 | 306 ft | 5 kts | 273° |
| 2026-05-07 10:23 | 52.82843 | -1.35240 | 308 ft | 7 kts | 327° |
| 2026-05-07 10:23 | 52.82881 | -1.35208 | 311 ft | 7 kts | 60° |
| 2026-05-07 10:23 | 52.82893 | -1.35131 | 308 ft | 7 kts | 83° |
| 2026-05-07 10:23 | 52.82898 | -1.35049 | 308 ft | 7 kts | 84° |
| 2026-05-07 10:24 | 52.82910 | -1.34969 | 311 ft | 7 kts | 56° |
| 2026-05-07 10:24 | 52.82936 | -1.34946 | 313 ft | 0 kts | 11° |
| 2026-05-07 10:25 | 52.82939 | -1.34946 | 313 ft | 3 kts | 9° |
| 2026-05-07 10:25 | 52.83017 | -1.34938 | 309 ft | 17 kts | 8° |
| 2026-05-07 10:25 | 52.83064 | -1.34774 | 307 ft | 17 kts | 86° |
| 2026-05-07 10:26 | 52.83073 | -1.34355 | 307 ft | 71 kts | 89° |
| 2026-05-07 10:26 | 52.83094 | -1.33145 | 314 ft | 138 kts | 89° |
| 2026-05-07 10:26 | 52.83130 | -1.31294 | 511 ft | 170 kts | 91° |
| 2026-05-07 10:26 | 52.83095 | -1.29334 | 1189 ft | 169 kts | 98° |
| 2026-05-07 10:27 | 52.82979 | -1.27420 | 1969 ft | 170 kts | 98° |
| 2026-05-07 10:27 | 52.82845 | -1.25384 | 2414 ft | 188 kts | 101° |
| 2026-05-07 10:27 | 52.82426 | -1.23199 | 2660 ft | 213 kts | 120° |
| 2026-05-07 10:27 | 52.81494 | -1.21140 | 3089 ft | 232 kts | 134° |
| 2026-05-07 10:28 | 52.80357 | -1.19158 | 3771 ft | 243 kts | 135° |
| 2026-05-07 10:28 | 52.79151 | -1.17111 | 4513 ft | 253 kts | 134° |
| 2026-05-07 10:28 | 52.77844 | -1.15154 | 5270 ft | 257 kts | 150° |
| 2026-05-07 10:28 | 52.76098 | -1.14497 | 5948 ft | 266 kts | 187° |
| 2026-05-07 10:29 | 52.74392 | -1.15675 | 6685 ft | 272 kts | 219° |
| 2026-05-07 10:29 | 52.73014 | -1.17828 | 7353 ft | 276 kts | 222° |
| 2026-05-07 10:29 | 52.71591 | -1.19907 | 8182 ft | 277 kts | 219° |
| 2026-05-07 10:30 | 52.68586 | -1.23929 | 9072 ft | 282 kts | 218° |
| 2026-05-07 10:30 | 52.67045 | -1.25948 | 9072 ft | 283 kts | 218° |
| 2026-05-07 10:30 | 52.65509 | -1.27950 | 9070 ft | 280 kts | 217° |
| 2026-05-07 10:30 | 52.63988 | -1.29926 | 9060 ft | 278 kts | 218° |
| 2026-05-07 10:31 | 52.62469 | -1.31895 | 9072 ft | 279 kts | 218° |
| 2026-05-07 10:31 | 52.60939 | -1.33877 | 9583 ft | 281 kts | 218° |
| 2026-05-07 10:31 | 52.59331 | -1.35683 | 10325 ft | 283 kts | 205° |
| 2026-05-07 10:31 | 52.57398 | -1.36643 | 10688 ft | 304 kts | 186° |
| 2026-05-07 10:32 | 52.55201 | -1.36457 | 10887 ft | 331 kts | 167° |
| 2026-05-07 10:32 | 52.52935 | -1.35170 | 11115 ft | 356 kts | 158° |
| 2026-05-07 10:32 | 52.50613 | -1.33561 | 11773 ft | 368 kts | 158° |
| 2026-05-07 10:32 | 52.48265 | -1.31919 | 12634 ft | 376 kts | 158° |
| 2026-05-07 10:33 | 52.45854 | -1.30237 | 13096 ft | 380 kts | 158° |
| 2026-05-07 10:33 | 52.43401 | -1.28543 | 13067 ft | 384 kts | 158° |
| 2026-05-07 10:33 | 52.40973 | -1.26878 | 13083 ft | 382 kts | 158° |
| 2026-05-07 10:33 | 52.38503 | -1.25197 | 13771 ft | 387 kts | 158° |
| 2026-05-07 10:34 | 52.36011 | -1.23510 | 14745 ft | 388 kts | 159° |
| 2026-05-07 10:34 | 52.33510 | -1.21821 | 15699 ft | 391 kts | 159° |
| 2026-05-07 10:34 | 52.30978 | -1.20116 | 16530 ft | 397 kts | 159° |
| 2026-05-07 10:34 | 52.28409 | -1.18387 | 17336 ft | 402 kts | 159° |
| 2026-05-07 10:35 | 52.25808 | -1.16637 | 18209 ft | 406 kts | 159° |
| 2026-05-07 10:35 | 52.23220 | -1.14899 | 18965 ft | 410 kts | 159° |
| 2026-05-07 10:35 | 52.20570 | -1.13124 | 19705 ft | 414 kts | 159° |
| 2026-05-07 10:35 | 52.17866 | -1.11469 | 20421 ft | 417 kts | 163° |
| 2026-05-07 10:36 | 52.15040 | -1.10300 | 21143 ft | 420 kts | 169° |
| 2026-05-07 10:36 | 52.12154 | -1.09400 | 21830 ft | 425 kts | 169° |
| 2026-05-07 10:36 | 52.09224 | -1.08474 | 22094 ft | 432 kts | 169° |
| 2026-05-07 10:36 | 52.06281 | -1.07528 | 22072 ft | 430 kts | 169° |
| 2026-05-07 10:37 | 52.03357 | -1.06576 | 22071 ft | 427 kts | 169° |
| 2026-05-07 10:37 | 52.00448 | -1.05623 | 22070 ft | 427 kts | 169° |
| 2026-05-07 10:37 | 51.97529 | -1.04665 | 22075 ft | 429 kts | 169° |
| 2026-05-07 10:37 | 51.94596 | -1.03703 | 22141 ft | 432 kts | 169° |
| 2026-05-07 10:38 | 51.91674 | -1.02746 | 22805 ft | 436 kts | 169° |
| 2026-05-07 10:38 | 51.88697 | -1.01772 | 23603 ft | 437 kts | 168° |
| 2026-05-07 10:38 | 51.85710 | -1.00798 | 24232 ft | 440 kts | 168° |
| 2026-05-07 10:38 | 51.82693 | -0.99818 | 24795 ft | 444 kts | 168° |
| 2026-05-07 10:39 | 51.79650 | -0.98841 | 25322 ft | 448 kts | 169° |
| 2026-05-07 10:39 | 51.76578 | -0.97858 | 25858 ft | 452 kts | 169° |
| 2026-05-07 10:39 | 51.73572 | -0.96898 | 26351 ft | 457 kts | 168° |
| 2026-05-07 10:39 | 51.70515 | -0.95921 | 26888 ft | 460 kts | 168° |
| 2026-05-07 10:40 | 51.67402 | -0.94927 | 27403 ft | 464 kts | 168° |
| 2026-05-07 10:40 | 51.64231 | -0.93916 | 27955 ft | 466 kts | 168° |
| 2026-05-07 10:40 | 51.61247 | -0.92558 | 28233 ft | 469 kts | 155° |
| 2026-05-07 10:40 | 51.58705 | -0.89985 | 28615 ft | 472 kts | 138° |
| 2026-05-07 10:41 | 51.56511 | -0.86065 | 29147 ft | 474 kts | 124° |
| 2026-05-07 10:41 | 51.54978 | -0.81363 | 29389 ft | 478 kts | 112° |
| 2026-05-07 10:41 | 51.53760 | -0.76342 | 29643 ft | 485 kts | 111° |
| 2026-05-07 10:41 | 51.52534 | -0.71290 | 30161 ft | 485 kts | 111° |
| 2026-05-07 10:42 | 51.51294 | -0.66269 | 30745 ft | 483 kts | 112° |
| 2026-05-07 10:42 | 51.50041 | -0.61290 | 31344 ft | 480 kts | 112° |
| 2026-05-07 10:42 | 51.48778 | -0.56349 | 31893 ft | 478 kts | 112° |
| 2026-05-07 10:42 | 51.47506 | -0.51424 | 32395 ft | 477 kts | 113° |
| 2026-05-07 10:43 | 51.46232 | -0.46517 | 32869 ft | 477 kts | 113° |
| 2026-05-07 10:43 | 51.44957 | -0.41620 | 33351 ft | 476 kts | 113° |
| 2026-05-07 10:43 | 51.43698 | -0.36795 | 33815 ft | 475 kts | 113° |
| 2026-05-07 10:43 | 51.42423 | -0.31916 | 34234 ft | 475 kts | 113° |
| 2026-05-07 10:44 | 51.41147 | -0.27037 | 34570 ft | 475 kts | 113° |
| 2026-05-07 10:44 | 51.39867 | -0.22154 | 34864 ft | 476 kts | 113° |
| 2026-05-07 10:44 | 51.38579 | -0.17252 | 35017 ft | 481 kts | 113° |
| 2026-05-07 10:44 | 51.37279 | -0.12310 | 35065 ft | 482 kts | 114° |
| 2026-05-07 10:45 | 51.34682 | -0.02468 | 35061 ft | 476 kts | 114° |
| 2026-05-07 10:45 | 51.32527 | 0.07456 | 34991 ft | 479 kts | 103° |
| 2026-05-07 10:46 | 51.31278 | 0.17951 | 34970 ft | 482 kts | 101° |
| 2026-05-07 10:46 | 51.30006 | 0.28515 | 34933 ft | 486 kts | 102° |
| 2026-05-07 10:47 | 51.28690 | 0.39129 | 34902 ft | 488 kts | 102° |
| 2026-05-07 10:47 | 51.27413 | 0.49712 | 34891 ft | 488 kts | 102° |
| 2026-05-07 10:48 | 51.26107 | 0.60347 | 34917 ft | 487 kts | 102° |
| 2026-05-07 10:48 | 51.24704 | 0.70918 | 34957 ft | 486 kts | 103° |
| 2026-05-07 10:49 | 51.23350 | 0.81477 | 34997 ft | 485 kts | 102° |
| 2026-05-07 10:49 | 51.22034 | 0.92017 | 35042 ft | 484 kts | 102° |
| 2026-05-07 10:50 | 51.20704 | 1.02465 | 35086 ft | 483 kts | 102° |
| 2026-05-07 10:50 | 51.19333 | 1.12955 | 35089 ft | 483 kts | 103° |
| 2026-05-07 10:51 | 51.17951 | 1.23441 | 35088 ft | 484 kts | 103° |
| 2026-05-07 10:51 | 51.16567 | 1.33934 | 35084 ft | 484 kts | 102° |
| 2026-05-07 10:52 | 51.15802 | 1.44514 | 35085 ft | 485 kts | 95° |
| 2026-05-07 10:52 | 51.15341 | 1.55244 | 35083 ft | 486 kts | 95° |
| 2026-05-07 10:53 | 51.14903 | 1.64692 | 35196 ft | 490 kts | 95° |
| 2026-05-07 10:53 | 51.14637 | 1.70098 | 35511 ft | 490 kts | 95° |
| 2026-05-07 10:53 | 51.14365 | 1.75500 | 35882 ft | 488 kts | 95° |
| 2026-05-07 10:54 | 51.14092 | 1.80859 | 36278 ft | 486 kts | 95° |
| 2026-05-07 10:54 | 51.13822 | 1.86103 | 36642 ft | 485 kts | 95° |
| 2026-05-07 10:54 | 51.13547 | 1.91451 | 36942 ft | 485 kts | 95° |
| 2026-05-07 10:54 | 51.13267 | 1.96831 | 37024 ft | 490 kts | 95° |
| 2026-05-07 10:55 | 51.12694 | 2.07677 | 37064 ft | 491 kts | 95° |
| 2026-05-07 10:55 | 51.12118 | 2.18426 | 37064 ft | 485 kts | 95° |
| 2026-05-07 10:56 | 51.11541 | 2.29021 | 37065 ft | 483 kts | 95° |
| 2026-05-07 10:56 | 51.10952 | 2.39666 | 37064 ft | 483 kts | 96° |
| 2026-05-07 10:57 | 51.10355 | 2.50304 | 37071 ft | 483 kts | 96° |
| 2026-05-07 10:57 | 51.09564 | 2.60913 | 37060 ft | 483 kts | 104° |
| 2026-05-07 10:58 | 51.07127 | 2.70821 | 37076 ft | 481 kts | 121° |
| 2026-05-07 10:58 | 51.03407 | 2.79571 | 37063 ft | 481 kts | 126° |
| 2026-05-07 10:59 | 50.99532 | 2.88260 | 37074 ft | 483 kts | 126° |
| 2026-05-07 10:59 | 50.95681 | 2.96996 | 37070 ft | 484 kts | 126° |
| 2026-05-07 11:00 | 50.91868 | 3.05709 | 37066 ft | 484 kts | 126° |
| 2026-05-07 11:00 | 50.88024 | 3.14484 | 37064 ft | 485 kts | 126° |
| 2026-05-07 11:01 | 50.84166 | 3.23257 | 37055 ft | 485 kts | 126° |
| 2026-05-07 11:01 | 50.80306 | 3.32001 | 37048 ft | 485 kts | 126° |
| 2026-05-07 11:02 | 50.76441 | 3.40725 | 37067 ft | 484 kts | 126° |
| 2026-05-07 11:02 | 50.72605 | 3.49357 | 37071 ft | 483 kts | 126° |
| 2026-05-07 11:03 | 50.68739 | 3.58026 | 37060 ft | 483 kts | 126° |
| 2026-05-07 11:03 | 50.64868 | 3.66679 | 37063 ft | 483 kts | 126° |
| 2026-05-07 11:04 | 50.61020 | 3.75256 | 37058 ft | 482 kts | 126° |
| 2026-05-07 11:04 | 50.57143 | 3.83868 | 37058 ft | 482 kts | 126° |
| 2026-05-07 11:05 | 50.53420 | 3.92650 | 37066 ft | 483 kts | 123° |
| 2026-05-07 11:05 | 50.49798 | 4.01545 | 37069 ft | 483 kts | 123° |
| 2026-05-07 11:06 | 50.46156 | 4.10420 | 37070 ft | 484 kts | 124° |
| 2026-05-07 11:06 | 50.42499 | 4.19220 | 37069 ft | 485 kts | 124° |
| 2026-05-07 11:07 | 50.38799 | 4.28062 | 37089 ft | 486 kts | 124° |
| 2026-05-07 11:07 | 50.35077 | 4.36924 | 37068 ft | 488 kts | 124° |
| 2026-05-07 11:08 | 50.31348 | 4.45778 | 37052 ft | 486 kts | 124° |
| 2026-05-07 11:08 | 50.27648 | 4.54534 | 37059 ft | 485 kts | 124° |
| 2026-05-07 11:09 | 50.23926 | 4.63314 | 37051 ft | 484 kts | 124° |
| 2026-05-07 11:09 | 50.20202 | 4.72069 | 37060 ft | 484 kts | 124° |
| 2026-05-07 11:10 | 50.16472 | 4.80807 | 37059 ft | 484 kts | 124° |
| 2026-05-07 11:10 | 50.12763 | 4.89470 | 37058 ft | 484 kts | 125° |
| 2026-05-07 11:11 | 50.09019 | 4.98185 | 37061 ft | 484 kts | 125° |
| 2026-05-07 11:11 | 50.05254 | 5.06919 | 37059 ft | 488 kts | 125° |
| 2026-05-07 11:12 | 50.01453 | 5.15706 | 37054 ft | 490 kts | 125° |
| 2026-05-07 11:12 | 49.97660 | 5.24449 | 37044 ft | 491 kts | 125° |
| 2026-05-07 11:13 | 49.93851 | 5.33201 | 37047 ft | 488 kts | 125° |
| 2026-05-07 11:13 | 49.90058 | 5.41885 | 37051 ft | 485 kts | 125° |
| 2026-05-07 11:14 | 49.86277 | 5.50513 | 37048 ft | 483 kts | 125° |
| 2026-05-07 11:14 | 49.82522 | 5.59054 | 37047 ft | 483 kts | 125° |
| 2026-05-07 11:15 | 49.78731 | 5.67649 | 37049 ft | 484 kts | 125° |
| 2026-05-07 11:15 | 49.74923 | 5.76254 | 37048 ft | 485 kts | 125° |
| 2026-05-07 11:16 | 49.71098 | 5.84872 | 37045 ft | 487 kts | 125° |
| 2026-05-07 11:16 | 49.67282 | 5.93441 | 37048 ft | 488 kts | 126° |
| 2026-05-07 11:17 | 49.63428 | 6.02068 | 37047 ft | 489 kts | 126° |
| 2026-05-07 11:17 | 49.59559 | 6.10701 | 37043 ft | 489 kts | 126° |
| 2026-05-07 11:18 | 49.55681 | 6.19326 | 37038 ft | 490 kts | 126° |
| 2026-05-07 11:18 | 49.51792 | 6.27953 | 37049 ft | 491 kts | 126° |
| 2026-05-07 11:19 | 49.47685 | 6.36208 | 37033 ft | 488 kts | 137° |
| 2026-05-07 11:19 | 49.42270 | 6.42365 | 37048 ft | 484 kts | 154° |
| 2026-05-07 11:20 | 49.36133 | 6.46525 | 37042 ft | 482 kts | 159° |
| 2026-05-07 11:20 | 49.29955 | 6.50568 | 37033 ft | 483 kts | 158° |
| 2026-05-07 11:21 | 49.23842 | 6.54656 | 37034 ft | 483 kts | 158° |
| 2026-05-07 11:21 | 49.17687 | 6.58806 | 37031 ft | 483 kts | 158° |
| 2026-05-07 11:22 | 49.11533 | 6.62946 | 37031 ft | 483 kts | 158° |
| 2026-05-07 11:22 | 49.05380 | 6.67071 | 37031 ft | 483 kts | 158° |
| 2026-05-07 11:23 | 48.99234 | 6.71210 | 37036 ft | 483 kts | 156° |
| 2026-05-07 11:23 | 48.93439 | 6.76286 | 37041 ft | 485 kts | 149° |
| 2026-05-07 11:24 | 48.87717 | 6.81735 | 37037 ft | 485 kts | 150° |
| 2026-05-07 11:24 | 48.81975 | 6.87143 | 37037 ft | 486 kts | 150° |
| 2026-05-07 11:25 | 48.76216 | 6.92506 | 37036 ft | 486 kts | 150° |
| 2026-05-07 11:25 | 48.70483 | 6.97821 | 37034 ft | 486 kts | 150° |
| 2026-05-07 11:26 | 48.64710 | 7.03162 | 37041 ft | 487 kts | 150° |
| 2026-05-07 11:26 | 48.59136 | 7.08307 | 37041 ft | 487 kts | 150° |
| 2026-05-07 11:27 | 48.53352 | 7.13634 | 37045 ft | 487 kts | 150° |
| 2026-05-07 11:27 | 48.47571 | 7.18834 | 37033 ft | 486 kts | 154° |
| 2026-05-07 11:28 | 48.41356 | 7.22702 | 37032 ft | 482 kts | 165° |
| 2026-05-07 11:28 | 48.34954 | 7.25706 | 37045 ft | 482 kts | 165° |
| 2026-05-07 11:29 | 48.28559 | 7.28732 | 37048 ft | 482 kts | 164° |
| 2026-05-07 11:29 | 48.22215 | 7.31776 | 37049 ft | 482 kts | 164° |
| 2026-05-07 11:30 | 48.15831 | 7.34846 | 37040 ft | 482 kts | 165° |
| 2026-05-07 11:30 | 48.09452 | 7.37905 | 37052 ft | 481 kts | 165° |
| 2026-05-07 11:31 | 48.03070 | 7.40956 | 37056 ft | 482 kts | 165° |
| 2026-05-07 11:31 | 47.96720 | 7.43983 | 37041 ft | 483 kts | 165° |
| 2026-05-07 11:32 | 47.87106 | 7.48551 | 37032 ft | 483 kts | 165° |
| 2026-05-07 11:33 | 47.80703 | 7.51586 | 37042 ft | 483 kts | 165° |
| 2026-05-07 11:33 | 47.74314 | 7.54621 | 37040 ft | 483 kts | 163° |
| 2026-05-07 11:34 | 47.68168 | 7.58400 | 37042 ft | 484 kts | 159° |
| 2026-05-07 11:34 | 47.62012 | 7.62449 | 37053 ft | 484 kts | 159° |
| 2026-05-07 11:35 | 47.55840 | 7.66475 | 37044 ft | 485 kts | 159° |
| 2026-05-07 11:35 | 47.49829 | 7.70354 | 37040 ft | 485 kts | 159° |
| 2026-05-07 11:36 | 47.43683 | 7.74299 | 37035 ft | 485 kts | 159° |
| 2026-05-07 11:36 | 47.37500 | 7.78258 | 37033 ft | 485 kts | 159° |
| 2026-05-07 11:37 | 47.31304 | 7.82215 | 37012 ft | 485 kts | 159° |
| 2026-05-07 11:37 | 47.25113 | 7.86161 | 37035 ft | 485 kts | 159° |
| 2026-05-07 11:38 | 47.18949 | 7.90079 | 37023 ft | 486 kts | 160° |
| 2026-05-07 11:38 | 47.12751 | 7.94010 | 37031 ft | 486 kts | 160° |
| 2026-05-07 11:39 | 47.06533 | 7.97941 | 36976 ft | 487 kts | 160° |
| 2026-05-07 11:39 | 47.03406 | 7.99914 | 36415 ft | 493 kts | 160° |
| 2026-05-07 11:39 | 47.00259 | 8.01898 | 35792 ft | 491 kts | 160° |
| 2026-05-07 11:39 | 46.97125 | 8.03872 | 35022 ft | 491 kts | 160° |
| 2026-05-07 11:40 | 46.94023 | 8.05823 | 34250 ft | 492 kts | 160° |
| 2026-05-07 11:40 | 46.90873 | 8.07801 | 33426 ft | 492 kts | 159° |
| 2026-05-07 11:40 | 46.87744 | 8.09765 | 32799 ft | 486 kts | 159° |
| 2026-05-07 11:40 | 46.84657 | 8.11701 | 32259 ft | 480 kts | 159° |
| 2026-05-07 11:41 | 46.81610 | 8.13608 | 31723 ft | 474 kts | 159° |
| 2026-05-07 11:41 | 46.78594 | 8.15493 | 31195 ft | 469 kts | 159° |
| 2026-05-07 11:41 | 46.75609 | 8.17355 | 30684 ft | 464 kts | 158° |
| 2026-05-07 11:41 | 46.72651 | 8.19198 | 30164 ft | 460 kts | 158° |
| 2026-05-07 11:42 | 46.69755 | 8.21001 | 29572 ft | 457 kts | 158° |
| 2026-05-07 11:42 | 46.66849 | 8.22808 | 29007 ft | 452 kts | 158° |
| 2026-05-07 11:42 | 46.63976 | 8.24595 | 28495 ft | 447 kts | 158° |
| 2026-05-07 11:42 | 46.61135 | 8.26359 | 27957 ft | 442 kts | 158° |
| 2026-05-07 11:43 | 46.58345 | 8.28087 | 27450 ft | 438 kts | 159° |
| 2026-05-07 11:43 | 46.55558 | 8.29813 | 26940 ft | 434 kts | 159° |
| 2026-05-07 11:43 | 46.52796 | 8.31520 | 26427 ft | 430 kts | 159° |
| 2026-05-07 11:43 | 46.50054 | 8.33213 | 25924 ft | 427 kts | 159° |
| 2026-05-07 11:44 | 46.47335 | 8.34891 | 25435 ft | 423 kts | 159° |
| 2026-05-07 11:44 | 46.44633 | 8.36557 | 24944 ft | 420 kts | 159° |
| 2026-05-07 11:44 | 46.41991 | 8.38183 | 24460 ft | 417 kts | 159° |
| 2026-05-07 11:44 | 46.39336 | 8.39817 | 23995 ft | 413 kts | 159° |
| 2026-05-07 11:45 | 46.36697 | 8.41440 | 23531 ft | 411 kts | 159° |
| 2026-05-07 11:45 | 46.34076 | 8.43048 | 22980 ft | 409 kts | 159° |
| 2026-05-07 11:45 | 46.31466 | 8.44646 | 22477 ft | 406 kts | 159° |
| 2026-05-07 11:45 | 46.28858 | 8.46157 | 22019 ft | 401 kts | 163° |
| 2026-05-07 11:46 | 46.26194 | 8.47217 | 21575 ft | 395 kts | 169° |
| 2026-05-07 11:46 | 46.23496 | 8.47844 | 21091 ft | 391 kts | 176° |
| 2026-05-07 11:46 | 46.20841 | 8.48193 | 20659 ft | 387 kts | 176° |
| 2026-05-07 11:46 | 46.18168 | 8.48555 | 20200 ft | 385 kts | 176° |
| 2026-05-07 11:47 | 46.15511 | 8.48936 | 19770 ft | 383 kts | 176° |
| 2026-05-07 11:47 | 46.12916 | 8.49332 | 19322 ft | 382 kts | 174° |
| 2026-05-07 11:47 | 46.10311 | 8.50068 | 18879 ft | 382 kts | 167° |
| 2026-05-07 11:47 | 46.07786 | 8.51242 | 18439 ft | 381 kts | 161° |
| 2026-05-07 11:48 | 46.05312 | 8.52601 | 17959 ft | 380 kts | 161° |
| 2026-05-07 11:48 | 46.02920 | 8.53919 | 17483 ft | 380 kts | 161° |
| 2026-05-07 11:48 | 46.00457 | 8.55266 | 17030 ft | 378 kts | 161° |
| 2026-05-07 11:48 | 45.98037 | 8.56575 | 16579 ft | 376 kts | 161° |
| 2026-05-07 11:49 | 45.95594 | 8.57893 | 16148 ft | 374 kts | 161° |
| 2026-05-07 11:49 | 45.93161 | 8.59199 | 15691 ft | 373 kts | 161° |
| 2026-05-07 11:49 | 45.90737 | 8.60501 | 15253 ft | 371 kts | 160° |
| 2026-05-07 11:49 | 45.88488 | 8.62209 | 14811 ft | 366 kts | 144° |
| 2026-05-07 11:50 | 45.86531 | 8.64547 | 14405 ft | 365 kts | 140° |
| 2026-05-07 11:50 | 45.84598 | 8.66910 | 13970 ft | 365 kts | 141° |
| 2026-05-07 11:50 | 45.82670 | 8.69205 | 13515 ft | 365 kts | 142° |
| 2026-05-07 11:50 | 45.80702 | 8.71497 | 13048 ft | 364 kts | 142° |
| 2026-05-07 11:51 | 45.78742 | 8.73753 | 12824 ft | 355 kts | 142° |
| 2026-05-07 11:51 | 45.76872 | 8.75901 | 12672 ft | 332 kts | 143° |
| 2026-05-07 11:51 | 45.75031 | 8.77722 | 12336 ft | 318 kts | 152° |
| 2026-05-07 11:51 | 45.73091 | 8.79194 | 12142 ft | 313 kts | 155° |
| 2026-05-07 11:52 | 45.71169 | 8.80576 | 12050 ft | 306 kts | 155° |
| 2026-05-07 11:52 | 45.69295 | 8.81946 | 11900 ft | 300 kts | 154° |
| 2026-05-07 11:52 | 45.67450 | 8.83331 | 11675 ft | 299 kts | 153° |
| 2026-05-07 11:52 | 45.65641 | 8.84709 | 11411 ft | 298 kts | 153° |
| 2026-05-07 11:53 | 45.63813 | 8.86109 | 11170 ft | 298 kts | 153° |
| 2026-05-07 11:53 | 45.61991 | 8.87489 | 10914 ft | 294 kts | 156° |
| 2026-05-07 11:53 | 45.60054 | 8.88377 | 10566 ft | 293 kts | 170° |
| 2026-05-07 11:53 | 45.58044 | 8.88859 | 10313 ft | 292 kts | 172° |
| 2026-05-07 11:54 | 45.56046 | 8.89315 | 10112 ft | 290 kts | 172° |
| 2026-05-07 11:54 | 45.54062 | 8.89812 | 9890 ft | 289 kts | 171° |
| 2026-05-07 11:54 | 45.52089 | 8.90332 | 9627 ft | 288 kts | 171° |
| 2026-05-07 11:54 | 45.50144 | 8.90855 | 9349 ft | 288 kts | 170° |
| 2026-05-07 11:55 | 45.48170 | 8.91389 | 9053 ft | 288 kts | 170° |
| 2026-05-07 11:55 | 45.46213 | 8.91921 | 8721 ft | 285 kts | 170° |
| 2026-05-07 11:55 | 45.44276 | 8.92448 | 8365 ft | 282 kts | 170° |
| 2026-05-07 11:55 | 45.42357 | 8.92969 | 7988 ft | 278 kts | 170° |
| 2026-05-07 11:56 | 45.40498 | 8.93474 | 7542 ft | 266 kts | 170° |
| 2026-05-07 11:56 | 45.38720 | 8.93957 | 7128 ft | 255 kts | 170° |
| 2026-05-07 11:56 | 45.37015 | 8.94420 | 6718 ft | 244 kts | 171° |
| 2026-05-07 11:56 | 45.35398 | 8.94857 | 6309 ft | 236 kts | 171° |
| 2026-05-07 11:57 | 45.33802 | 8.95289 | 5885 ft | 232 kts | 171° |
| 2026-05-07 11:57 | 45.32199 | 8.95722 | 5506 ft | 238 kts | 171° |
| 2026-05-07 11:57 | 45.30548 | 8.96167 | 5133 ft | 244 kts | 171° |
| 2026-05-07 11:57 | 45.28882 | 8.96619 | 4775 ft | 243 kts | 170° |
| 2026-05-07 11:58 | 45.27232 | 8.97068 | 4459 ft | 240 kts | 170° |
| 2026-05-07 11:58 | 45.25603 | 8.97511 | 4141 ft | 237 kts | 170° |
| 2026-05-07 11:58 | 45.24011 | 8.97567 | 3791 ft | 227 kts | 198° |
| 2026-05-07 11:58 | 45.22739 | 8.96442 | 3487 ft | 217 kts | 232° |
| 2026-05-07 11:59 | 45.21997 | 8.94665 | 3504 ft | 211 kts | 251° |
| 2026-05-07 11:59 | 45.21634 | 8.92626 | 3532 ft | 217 kts | 258° |
| 2026-05-07 11:59 | 45.21355 | 8.90500 | 3527 ft | 220 kts | 259° |
| 2026-05-07 11:59 | 45.21077 | 8.88368 | 3425 ft | 221 kts | 260° |
| 2026-05-07 12:00 | 45.21126 | 8.86239 | 3191 ft | 218 kts | 291° |
| 2026-05-07 12:00 | 45.22005 | 8.84545 | 3080 ft | 215 kts | 323° |
| 2026-05-07 12:00 | 45.23360 | 8.83638 | 3020 ft | 219 kts | 345° |
| 2026-05-07 12:00 | 45.24840 | 8.83202 | 3073 ft | 221 kts | 349° |
| 2026-05-07 12:01 | 45.26367 | 8.82810 | 3038 ft | 224 kts | 349° |
| 2026-05-07 12:01 | 45.27895 | 8.82413 | 3002 ft | 223 kts | 349° |
| 2026-05-07 12:01 | 45.29415 | 8.82021 | 2990 ft | 221 kts | 349° |
| 2026-05-07 12:01 | 45.30920 | 8.81627 | 2992 ft | 219 kts | 348° |
| 2026-05-07 12:02 | 45.32409 | 8.81228 | 2992 ft | 217 kts | 348° |
| 2026-05-07 12:02 | 45.33884 | 8.80831 | 3002 ft | 215 kts | 348° |
| 2026-05-07 12:02 | 45.35371 | 8.80427 | 3015 ft | 220 kts | 348° |
| 2026-05-07 12:02 | 45.36887 | 8.80015 | 3014 ft | 222 kts | 349° |
| 2026-05-07 12:03 | 45.38411 | 8.79681 | 3005 ft | 221 kts | 352° |
| 2026-05-07 12:03 | 45.39916 | 8.79395 | 2999 ft | 221 kts | 352° |
| 2026-05-07 12:03 | 45.41435 | 8.79105 | 3001 ft | 220 kts | 351° |
| 2026-05-07 12:03 | 45.42955 | 8.78811 | 3005 ft | 220 kts | 352° |
| 2026-05-07 12:04 | 45.44467 | 8.78470 | 3026 ft | 220 kts | 349° |
| 2026-05-07 12:04 | 45.45973 | 8.78056 | 3019 ft | 220 kts | 349° |
| 2026-05-07 12:04 | 45.47473 | 8.77639 | 3018 ft | 219 kts | 349° |
| 2026-05-07 12:04 | 45.48968 | 8.77227 | 3022 ft | 218 kts | 349° |
| 2026-05-07 12:05 | 45.50436 | 8.76824 | 2985 ft | 208 kts | 349° |
| 2026-05-07 12:05 | 45.51817 | 8.76443 | 2717 ft | 194 kts | 349° |
| 2026-05-07 12:05 | 45.53071 | 8.76096 | 2459 ft | 178 kts | 349° |
| 2026-05-07 12:05 | 45.54228 | 8.75777 | 2225 ft | 161 kts | 349° |
| 2026-05-07 12:06 | 45.55263 | 8.75493 | 2023 ft | 147 kts | 349° |
| 2026-05-07 12:06 | 45.56275 | 8.75213 | 1839 ft | 150 kts | 348° |
| 2026-05-07 12:06 | 45.57301 | 8.74931 | 1615 ft | 150 kts | 348° |
| 2026-05-07 12:06 | 45.58317 | 8.74650 | 1406 ft | 147 kts | 349° |
| 2026-05-07 12:07 | 45.59315 | 8.74375 | 1198 ft | 145 kts | 349° |